sensor_id;sensor_type;location;lat;lon;timestamp;pressure;altitude;pressure_sealevel;temperature;humidity
57192;BME280;43052;52.588;13.396;2024-02-14T05:34:24;101288.56;;;4.34;85.11
57192;BME280;43052;52.588;13.396;2024-02-14T05:36:50;101302.56;;;4.41;84.89
57192;BME280;43052;52.588;13.396;2024-02-14T05:39:16;101293.09;;;4.42;85.20
57192;BME280;43052;52.588;13.396;2024-02-14T05:41:41;101298.41;;;4.46;85.31
57192;BME280;43052;52.588;13.396;2024-02-14T05:44:07;101293.25;;;4.48;84.11
57192;BME280;43052;52.588;13.396;2024-02-14T05:46:32;101286.97;;;4.39;83.65
57192;BME280;43052;52.588;13.396;2024-02-14T05:48:58;101291.16;;;4.34;83.96
57192;BME280;43052;52.588;13.396;2024-02-14T05:51:24;101286.84;;;4.35;84.36
57192;BME280;43052;52.588;13.396;2024-02-14T05:53:49;101280.81;;;4.34;84.24
57192;BME280;43052;52.588;13.396;2024-02-14T05:56:14;101275.53;;;4.31;84.47
57192;BME280;43052;52.588;13.396;2024-02-14T05:58:40;101278.28;;;4.37;84.34
57192;BME280;43052;52.588;13.396;2024-02-14T06:01:05;101279.97;;;4.35;84.17
57192;BME280;43052;52.588;13.396;2024-02-14T06:03:31;101267.63;;;4.27;84.26
57192;BME280;43052;52.588;13.396;2024-02-14T06:05:57;101278.88;;;4.27;84.58
57192;BME280;43052;52.588;13.396;2024-02-14T06:08:22;101273.38;;;4.16;84.47
57192;BME280;43052;52.588;13.396;2024-02-14T06:10:49;101275.94;;;4.15;84.51
57192;BME280;43052;52.588;13.396;2024-02-14T06:13:15;101283.88;;;4.21;84.89
57192;BME280;43052;52.588;13.396;2024-02-14T06:15:40;101290.97;;;4.28;84.55
57192;BME280;43052;52.588;13.396;2024-02-14T06:18:06;101280.69;;;4.30;84.66
57192;BME280;43052;52.588;13.396;2024-02-14T06:20:31;101275.41;;;4.27;84.60
57192;BME280;43052;52.588;13.396;2024-02-14T06:22:57;101289.25;;;4.27;84.54
57192;BME280;43052;52.588;13.396;2024-02-14T06:25:23;101275.31;;;4.23;84.81
57192;BME280;43052;52.588;13.396;2024-02-14T06:27:57;101282.59;;;4.37;84.74
57192;BME280;43052;52.588;13.396;2024-02-14T06:30:22;101294.06;;;4.45;84.55
57192;BME280;43052;52.588;13.396;2024-02-14T06:32:48;101287.13;;;4.44;84.60
57192;BME280;43052;52.588;13.396;2024-02-14T06:35:13;101280.16;;;4.42;84.51
57192;BME280;43052;52.588;13.396;2024-02-14T06:37:40;101279.50;;;4.50;84.47
57192;BME280;43052;52.588;13.396;2024-02-14T06:40:06;101282.31;;;4.58;83.88
57192;BME280;43052;52.588;13.396;2024-02-14T06:42:34;101267.59;;;4.57;84.04
57192;BME280;43052;52.588;13.396;2024-02-14T06:44:59;101280.84;;;4.68;83.92
57192;BME280;43052;52.588;13.396;2024-02-14T06:47:25;101271.41;;;4.70;83.61
57192;BME280;43052;52.588;13.396;2024-02-14T06:49:55;101268.94;;;4.75;83.50
57192;BME280;43052;52.588;13.396;2024-02-14T06:52:21;101255.03;;;4.71;82.95
57192;BME280;43052;52.588;13.396;2024-02-14T06:54:46;101260.34;;;4.76;82.56
57192;BME280;43052;52.588;13.396;2024-02-14T06:57:13;101243.63;;;4.64;82.52
57192;BME280;43052;52.588;13.396;2024-02-14T06:59:39;101241.91;;;4.65;82.63
57192;BME280;43052;52.588;13.396;2024-02-14T07:02:05;101241.22;;;4.70;82.71
57192;BME280;43052;52.588;13.396;2024-02-14T07:04:31;101251.94;;;4.84;82.51
57192;BME280;43052;52.588;13.396;2024-02-14T07:06:57;101250.31;;;4.90;82.46
57192;BME280;43052;52.588;13.396;2024-02-14T07:09:23;101250.44;;;4.94;82.36
57192;BME280;43052;52.588;13.396;2024-02-14T07:11:50;101243.59;;;4.96;82.13
57192;BME280;43052;52.588;13.396;2024-02-14T07:14:16;101247.25;;;5.05;82.19
57192;BME280;43052;52.588;13.396;2024-02-14T07:16:41;101243.72;;;5.01;81.34
57192;BME280;43052;52.588;13.396;2024-02-14T07:19:07;101265.63;;;5.14;81.17
57192;BME280;43052;52.588;13.396;2024-02-14T07:21:32;101254.56;;;5.21;81.35
57192;BME280;43052;52.588;13.396;2024-02-14T07:23:58;101258.09;;;5.25;80.20
57192;BME280;43052;52.588;13.396;2024-02-14T07:26:24;101256.56;;;5.33;80.81
57192;BME280;43052;52.588;13.396;2024-02-14T07:28:49;101259.38;;;5.42;80.04
57192;BME280;43052;52.588;13.396;2024-02-14T07:31:14;101266.41;;;5.46;79.96
57192;BME280;43052;52.588;13.396;2024-02-14T07:33:40;101256.78;;;5.42;80.25
57192;BME280;43052;52.588;13.396;2024-02-14T07:36:06;101271.06;;;5.61;79.94
57192;BME280;43052;52.588;13.396;2024-02-14T07:38:31;101287.69;;;5.70;79.79
57192;BME280;43052;52.588;13.396;2024-02-14T07:40:57;101282.59;;;5.74;79.37
57192;BME280;43052;52.588;13.396;2024-02-14T07:43:24;101281.00;;;5.79;79.24
57192;BME280;43052;52.588;13.396;2024-02-14T07:45:50;101284.47;;;5.80;79.11
57192;BME280;43052;52.588;13.396;2024-02-14T07:48:15;101291.72;;;5.95;79.29
57192;BME280;43052;52.588;13.396;2024-02-14T07:50:42;101293.59;;;6.01;78.72
57192;BME280;43052;52.588;13.396;2024-02-14T07:53:07;101266.81;;;6.03;78.45
57192;BME280;43052;52.588;13.396;2024-02-14T07:55:33;101280.88;;;6.13;78.32
57192;BME280;43052;52.588;13.396;2024-02-14T07:57:58;101262.66;;;6.10;78.33
57192;BME280;43052;52.588;13.396;2024-02-14T08:00:26;101281.03;;;6.21;78.13
57192;BME280;43052;52.588;13.396;2024-02-14T08:02:51;101253.13;;;6.10;78.10
57192;BME280;43052;52.588;13.396;2024-02-14T08:05:17;101278.47;;;6.22;77.97
57192;BME280;43052;52.588;13.396;2024-02-14T08:07:44;101268.06;;;6.22;77.11
57192;BME280;43052;52.588;13.396;2024-02-14T08:10:10;101266.38;;;6.23;77.45
57192;BME280;43052;52.588;13.396;2024-02-14T08:12:36;101264.78;;;6.30;77.75
57192;BME280;43052;52.588;13.396;2024-02-14T08:15:01;101259.78;;;6.40;77.14
57192;BME280;43052;52.588;13.396;2024-02-14T08:17:30;101258.22;;;6.50;76.80
57192;BME280;43052;52.588;13.396;2024-02-14T08:19:55;101242.53;;;6.42;76.53
57192;BME280;43052;52.588;13.396;2024-02-14T08:22:22;101241.44;;;6.33;76.97
57192;BME280;43052;52.588;13.396;2024-02-14T08:24:48;101255.47;;;6.41;77.50
57192;BME280;43052;52.588;13.396;2024-02-14T08:27:13;101253.78;;;6.45;78.07
57192;BME280;43052;52.588;13.396;2024-02-14T08:29:38;101229.53;;;6.42;78.27
57192;BME280;43052;52.588;13.396;2024-02-14T08:32:04;101234.13;;;6.57;78.25
57192;BME280;43052;52.588;13.396;2024-02-14T08:34:30;101235.09;;;6.64;77.87
57192;BME280;43052;52.588;13.396;2024-02-14T08:36:55;101241.38;;;6.76;77.78
57192;BME280;43052;52.588;13.396;2024-02-14T08:39:21;101256.41;;;6.94;77.89
57192;BME280;43052;52.588;13.396;2024-02-14T08:41:47;101246.00;;;6.92;77.71
57192;BME280;43052;52.588;13.396;2024-02-14T08:44:15;101243.38;;;6.90;77.44
57192;BME280;43052;52.588;13.396;2024-02-14T08:46:41;101237.19;;;6.84;77.91
57192;BME280;43052;52.588;13.396;2024-02-14T08:49:10;101222.66;;;6.95;78.16
57192;BME280;43052;52.588;13.396;2024-02-14T08:51:36;101228.19;;;7.15;77.98
57192;BME280;43052;52.588;13.396;2024-02-14T08:54:02;101232.69;;;7.27;77.51
57192;BME280;43052;52.588;13.396;2024-02-14T08:56:33;101240.81;;;7.47;77.43
57192;BME280;43052;52.588;13.396;2024-02-14T08:59:00;101243.59;;;7.61;77.14
57192;BME280;43052;52.588;13.396;2024-02-14T09:01:27;101229.75;;;7.61;77.04
57192;BME280;43052;52.588;13.396;2024-02-14T09:03:52;101221.81;;;7.55;76.55
57192;BME280;43052;52.588;13.396;2024-02-14T09:06:23;101230.59;;;7.60;76.86
57192;BME280;43052;52.588;13.396;2024-02-14T09:08:49;101235.22;;;7.81;77.38
57192;BME280;43052;52.588;13.396;2024-02-14T09:11:17;101232.72;;;7.89;77.17
57192;BME280;43052;52.588;13.396;2024-02-14T09:13:43;101234.41;;;7.87;76.74
57192;BME280;43052;52.588;13.396;2024-02-14T09:16:09;101241.31;;;7.83;76.90
57192;BME280;43052;52.588;13.396;2024-02-14T09:18:45;101233.47;;;7.81;77.12
57192;BME280;43052;52.588;13.396;2024-02-14T09:21:10;101241.28;;;7.81;77.37
57192;BME280;43052;52.588;13.396;2024-02-14T09:23:36;101231.56;;;7.68;77.57
57192;BME280;43052;52.588;13.396;2024-02-14T09:26:05;101238.41;;;7.60;77.74
57192;BME280;43052;52.588;13.396;2024-02-14T09:28:30;101237.41;;;7.53;77.87
57192;BME280;43052;52.588;13.396;2024-02-14T09:33:49;101236.56;;;7.54;78.36
57192;BME280;43052;52.588;13.396;2024-02-14T09:36:15;101241.91;;;7.62;78.33
57192;BME280;43052;52.588;13.396;2024-02-14T09:38:41;101246.28;;;7.67;78.61
57192;BME280;43052;52.588;13.396;2024-02-14T09:41:17;101240.22;;;7.68;78.92
57192;BME280;43052;52.588;13.396;2024-02-14T09:43:47;101227.03;;;7.55;79.51
57192;BME280;43052;52.588;13.396;2024-02-14T09:46:13;101242.75;;;7.61;79.84
57192;BME280;43052;52.588;13.396;2024-02-14T09:48:42;101233.19;;;7.61;80.20
57192;BME280;43052;52.588;13.396;2024-02-14T09:51:09;101235.94;;;7.72;80.57
57192;BME280;43052;52.588;13.396;2024-02-14T09:53:34;101240.22;;;7.67;80.76
57192;BME280;43052;52.588;13.396;2024-02-14T09:57:19;101209.44;;;7.38;81.17
57192;BME280;43052;52.588;13.396;2024-02-14T10:01:20;101229.50;;;7.45;82.10
57192;BME280;43052;52.588;13.396;2024-02-14T10:04:10;101242.81;;;7.65;82.14
57192;BME280;43052;52.588;13.396;2024-02-14T10:06:35;101238.63;;;7.77;82.11
57192;BME280;43052;52.588;13.396;2024-02-14T10:09:02;101225.63;;;7.78;82.44
57192;BME280;43052;52.588;13.396;2024-02-14T10:11:28;101218.75;;;7.83;82.84
57192;BME280;43052;52.588;13.396;2024-02-14T10:13:53;101220.50;;;7.84;83.16
57192;BME280;43052;52.588;13.396;2024-02-14T10:16:22;101218.06;;;7.97;83.66
57192;BME280;43052;52.588;13.396;2024-02-14T10:18:48;101224.41;;;8.21;83.95
57192;BME280;43052;52.588;13.396;2024-02-14T10:21:16;101223.06;;;8.52;83.67
57192;BME280;43052;52.588;13.396;2024-02-14T10:23:44;101225.00;;;8.72;83.22
57192;BME280;43052;52.588;13.396;2024-02-14T10:26:10;101219.03;;;8.85;83.14
57192;BME280;43052;52.588;13.396;2024-02-14T10:28:36;101211.22;;;8.88;82.79
57192;BME280;43052;52.588;13.396;2024-02-14T10:31:02;101219.97;;;8.95;82.97
57192;BME280;43052;52.588;13.396;2024-02-14T10:33:28;101225.94;;;8.83;83.08
57192;BME280;43052;52.588;13.396;2024-02-14T10:35:54;101224.16;;;8.76;83.38
57192;BME280;43052;52.588;13.396;2024-02-14T10:38:22;101201.50;;;8.69;83.54
57192;BME280;43052;52.588;13.396;2024-02-14T10:40:49;101207.66;;;8.75;83.69
57192;BME280;43052;52.588;13.396;2024-02-14T10:43:15;101190.34;;;8.85;83.97
57192;BME280;43052;52.588;13.396;2024-02-14T10:45:42;101220.16;;;9.18;83.41
57192;BME280;43052;52.588;13.396;2024-02-14T10:48:25;101191.44;;;9.15;83.13
57192;BME280;43052;52.588;13.396;2024-02-14T10:51:04;101214.19;;;9.38;82.53
57192;BME280;43052;52.588;13.396;2024-02-14T10:53:32;101207.19;;;9.29;82.50
57192;BME280;43052;52.588;13.396;2024-02-14T10:55:59;101215.00;;;9.28;82.49
57192;BME280;43052;52.588;13.396;2024-02-14T10:58:28;101213.25;;;9.25;82.93
57192;BME280;43052;52.588;13.396;2024-02-14T11:00:55;101202.06;;;9.48;83.16
57192;BME280;43052;52.588;13.396;2024-02-14T11:03:22;101185.69;;;9.75;82.19
57192;BME280;43052;52.588;13.396;2024-02-14T11:05:48;101198.03;;;10.16;81.84
57192;BME280;43052;52.588;13.396;2024-02-14T11:08:21;101199.03;;;10.59;80.84
57192;BME280;43052;52.588;13.396;2024-02-14T11:10:59;101190.34;;;10.94;79.93
57192;BME280;43052;52.588;13.396;2024-02-14T11:13:26;101178.13;;;11.13;78.86
57192;BME280;43052;52.588;13.396;2024-02-14T11:15:53;101178.13;;;11.13;78.29
57192;BME280;43052;52.588;13.396;2024-02-14T11:18:25;101185.97;;;11.22;77.91
57192;BME280;43052;52.588;13.396;2024-02-14T11:20:51;101189.47;;;11.12;77.77
57192;BME280;43052;52.588;13.396;2024-02-14T11:27:11;101197.19;;;10.17;79.03
57192;BME280;43052;52.588;13.396;2024-02-14T11:59:11;101187.84;;;8.98;84.64
57192;BME280;43052;52.588;13.396;2024-02-14T12:01:37;101200.91;;;9.02;84.97
57192;BME280;43052;52.588;13.396;2024-02-14T12:04:07;101196.56;;;9.01;85.54
57192;BME280;43052;52.588;13.396;2024-02-14T12:06:38;101191.28;;;8.95;85.65
57192;BME280;43052;52.588;13.396;2024-02-14T12:09:06;101185.13;;;8.87;85.93
57192;BME280;43052;52.588;13.396;2024-02-14T12:11:36;101187.81;;;8.94;86.36
57192;BME280;43052;52.588;13.396;2024-02-14T12:14:10;101181.72;;;8.94;86.75
57192;BME280;43052;52.588;13.396;2024-02-14T12:16:37;101172.97;;;8.86;87.06
57192;BME280;43052;52.588;13.396;2024-02-14T12:19:06;101183.31;;;8.80;87.33
57192;BME280;43052;52.588;13.396;2024-02-14T12:27:31;101188.91;;;9.26;87.33
57192;BME280;43052;52.588;13.396;2024-02-14T12:30:51;101169.75;;;9.21;86.98
57192;BME280;43052;52.588;13.396;2024-02-14T12:33:22;101178.44;;;9.23;87.56
57192;BME280;43052;52.588;13.396;2024-02-14T12:35:49;101185.47;;;9.32;87.82
57192;BME280;43052;52.588;13.396;2024-02-14T12:38:17;101177.63;;;9.35;88.08
57192;BME280;43052;52.588;13.396;2024-02-14T12:40:43;101178.56;;;9.48;88.06
57192;BME280;43052;52.588;13.396;2024-02-14T12:43:13;101184.75;;;9.65;87.83
57192;BME280;43052;52.588;13.396;2024-02-14T12:45:40;101172.63;;;9.69;87.47
57192;BME280;43052;52.588;13.396;2024-02-14T12:48:06;101168.22;;;9.66;87.44
57192;BME280;43052;52.588;13.396;2024-02-14T12:50:34;101173.44;;;9.66;nan
57192;BME280;43052;52.588;13.396;2024-02-14T12:53:04;101179.56;;;9.67;87.92
57192;BME280;43052;52.588;13.396;2024-02-14T12:55:29;101188.34;;;9.78;88.06
57192;BME280;43052;52.588;13.396;2024-02-14T12:57:59;101177.84;;;9.77;87.98
57192;BME280;43052;52.588;13.396;2024-02-14T13:00:24;101184.81;;;9.75;88.28
57192;BME280;43052;52.588;13.396;2024-02-14T13:02:50;101184.78;;;9.70;88.82
57192;BME280;43052;52.588;13.396;2024-02-14T13:05:16;101178.72;;;9.72;88.83
57192;BME280;43052;52.588;13.396;2024-02-14T13:07:43;101181.38;;;9.83;88.83
57192;BME280;43052;52.588;13.396;2024-02-14T13:10:09;101185.72;;;9.87;88.68
57192;BME280;43052;52.588;13.396;2024-02-14T13:12:36;101185.72;;;9.83;88.77
57192;BME280;43052;52.588;13.396;2024-02-14T13:15:02;101189.19;;;9.77;88.93
57192;BME280;43052;52.588;13.396;2024-02-14T13:17:29;101184.78;;;9.67;89.00
57192;BME280;43052;52.588;13.396;2024-02-14T13:19:55;101191.72;;;9.60;89.66
57192;BME280;43052;52.588;13.396;2024-02-14T13:22:20;101190.00;;;9.61;89.81
57192;BME280;43052;52.588;13.396;2024-02-14T13:24:46;101186.50;;;9.60;90.10
57192;BME280;43052;52.588;13.396;2024-02-14T13:27:11;101181.22;;;9.49;90.50
57192;BME280;43052;52.588;13.396;2024-02-14T13:29:36;101182.06;;;9.44;90.87
57192;BME280;43052;52.588;13.396;2024-02-14T13:32:03;101176.78;;;9.36;91.08
57192;BME280;43052;52.588;13.396;2024-02-14T13:34:33;101189.03;;;9.46;91.40
57192;BME280;43052;52.588;13.396;2024-02-14T13:36:58;101189.91;;;9.50;91.59
57192;BME280;43052;52.588;13.396;2024-02-14T13:39:24;101179.44;;;9.45;91.48
57192;BME280;43052;52.588;13.396;2024-02-14T13:41:49;101203.88;;;9.55;92.05
57192;BME280;43052;52.588;13.396;2024-02-14T13:44:16;101200.41;;;9.59;91.88
57192;BME280;43052;52.588;13.396;2024-02-14T13:46:45;101204.78;;;9.63;92.17
57192;BME280;43052;52.588;13.396;2024-02-14T13:49:16;101205.66;;;9.65;92.25
57192;BME280;43052;52.588;13.396;2024-02-14T13:51:47;101193.38;;;9.49;92.42
57192;BME280;43052;52.588;13.396;2024-02-14T13:54:13;101197.69;;;9.40;92.79
57192;BME280;43052;52.588;13.396;2024-02-14T13:56:38;101193.34;;;9.43;93.29
57192;BME280;43052;52.588;13.396;2024-02-14T13:59:04;101189.00;;;9.41;93.15
57192;BME280;43052;52.588;13.396;2024-02-14T14:01:29;101182.88;;;9.38;93.56
57192;BME280;43052;52.588;13.396;2024-02-14T14:03:55;101195.06;;;9.39;93.79
57192;BME280;43052;52.588;13.396;2024-02-14T14:06:22;101205.56;;;9.47;93.95
57192;BME280;43052;52.588;13.396;2024-02-14T14:08:50;101197.75;;;9.47;94.14
57192;BME280;43052;52.588;13.396;2024-02-14T14:11:15;101195.13;;;9.48;94.30
57192;BME280;43052;52.588;13.396;2024-02-14T14:13:41;101194.25;;;9.46;94.64
57192;BME280;43052;52.588;13.396;2024-02-14T14:16:06;101189.88;;;9.44;94.65
57192;BME280;43052;52.588;13.396;2024-02-14T14:18:32;101197.75;;;9.50;94.96
57192;BME280;43052;52.588;13.396;2024-02-14T14:20:58;101196.00;;;9.47;95.01
57192;BME280;43052;52.588;13.396;2024-02-14T14:23:23;101194.25;;;9.48;95.31
57192;BME280;43052;52.588;13.396;2024-02-14T14:25:49;101200.38;;;9.51;95.34
57192;BME280;43052;52.588;13.396;2024-02-14T14:28:14;101201.25;;;9.53;95.62
57192;BME280;43052;52.588;13.396;2024-02-14T14:30:40;101199.53;;;9.54;95.43
57192;BME280;43052;52.588;13.396;2024-02-14T14:33:06;101191.63;;;9.48;95.95
57192;BME280;43052;52.588;13.396;2024-02-14T14:35:33;101194.28;;;9.52;95.95
57192;BME280;43052;52.588;13.396;2024-02-14T14:37:59;101213.47;;;9.57;96.03
57192;BME280;43052;52.588;13.396;2024-02-14T14:40:25;101210.00;;;9.60;96.21
57192;BME280;43052;52.588;13.396;2024-02-14T14:42:51;101210.00;;;9.60;96.36
57192;BME280;43052;52.588;13.396;2024-02-14T14:45:18;101206.50;;;9.55;96.61
57192;BME280;43052;52.588;13.396;2024-02-14T14:47:43;101202.13;;;9.55;96.58
57192;BME280;43052;52.588;13.396;2024-02-14T14:50:09;101210.91;;;9.67;96.48
57192;BME280;43052;52.588;13.396;2024-02-14T14:52:34;101211.78;;;9.70;96.45
57192;BME280;43052;52.588;13.396;2024-02-14T14:55:00;101203.06;;;9.68;96.71
57192;BME280;43052;52.588;13.396;2024-02-14T15:19:45;101212.78;;;9.91;96.47
57192;BME280;43052;52.588;13.396;2024-02-14T15:22:11;101226.69;;;9.93;96.60
57192;BME280;43052;52.588;13.396;2024-02-14T15:24:36;101208.38;;;9.87;96.51
57192;BME280;43052;52.588;13.396;2024-02-14T15:27:04;101225.81;;;9.88;96.85
57192;BME280;43052;52.588;13.396;2024-02-14T15:29:30;101225.81;;;9.88;97.03
57192;BME280;43052;52.588;13.396;2024-02-14T15:32:15;101227.59;;;9.94;96.92
57192;BME280;43052;52.588;13.396;2024-02-14T15:35:00;101233.69;;;9.96;96.76
57192;BME280;43052;52.588;13.396;2024-02-14T15:37:25;101223.25;;;9.96;97.01
57192;BME280;43052;52.588;13.396;2024-02-14T15:39:51;101220.59;;;9.94;96.97
57192;BME280;43052;52.588;13.396;2024-02-14T15:42:17;101230.22;;;9.98;96.70
57192;BME280;43052;52.588;13.396;2024-02-14T15:44:43;101231.06;;;9.91;96.69
57192;BME280;43052;52.588;13.396;2024-02-14T15:47:09;101232.78;;;9.91;96.84
57192;BME280;43052;52.588;13.396;2024-02-14T15:49:35;101226.66;;;9.87;97.09
57192;BME280;43052;52.588;13.396;2024-02-14T15:52:01;101237.16;;;9.92;97.16
57192;BME280;43052;52.588;13.396;2024-02-14T15:54:27;101237.16;;;9.92;97.10
57192;BME280;43052;52.588;13.396;2024-02-14T15:56:52;101223.19;;;9.83;97.33
57192;BME280;43052;52.588;13.396;2024-02-14T15:59:18;101223.19;;;9.82;97.17
57192;BME280;43052;52.588;13.396;2024-02-14T16:01:43;101226.66;;;9.81;97.24
57192;BME280;43052;52.588;13.396;2024-02-14T16:04:09;101226.66;;;9.81;97.18
57192;BME280;43052;52.588;13.396;2024-02-14T16:06:34;101228.41;;;9.82;97.16
57192;BME280;43052;52.588;13.396;2024-02-14T16:09:03;101237.97;;;9.86;97.18
57192;BME280;43052;52.588;13.396;2024-02-14T16:11:30;101231.00;;;9.85;97.12
57192;BME280;43052;52.588;13.396;2024-02-14T16:13:56;101237.13;;;9.85;97.41
57192;BME280;43052;52.588;13.396;2024-02-14T16:16:22;101242.31;;;9.84;97.45
57192;BME280;43052;52.588;13.396;2024-02-14T16:18:48;101244.94;;;9.81;97.56
57192;BME280;43052;52.588;13.396;2024-02-14T16:21:13;101247.53;;;9.84;97.55
57192;BME280;43052;52.588;13.396;2024-02-14T16:23:39;101231.84;;;9.79;97.65
57192;BME280;43052;52.588;13.396;2024-02-14T16:26:05;101235.31;;;9.77;97.72
57192;BME280;43052;52.588;13.396;2024-02-14T16:28:31;101235.31;;;9.75;97.69
57192;BME280;43052;52.588;13.396;2024-02-14T16:30:57;101244.91;;;9.78;97.76
57192;BME280;43052;52.588;13.396;2024-02-14T16:33:22;101237.94;;;9.74;97.90
57192;BME280;43052;52.588;13.396;2024-02-14T16:35:48;101243.19;;;9.78;97.98
57192;BME280;43052;52.588;13.396;2024-02-14T16:38:13;101246.66;;;9.77;97.83
57192;BME280;43052;52.588;13.396;2024-02-14T16:40:39;101257.13;;;9.82;98.11
57192;BME280;43052;52.588;13.396;2024-02-14T16:43:05;101252.78;;;9.87;97.88
57192;BME280;43052;52.588;13.396;2024-02-14T16:45:31;101263.25;;;9.87;97.91
57192;BME280;43052;52.588;13.396;2024-02-14T16:47:57;101259.75;;;9.85;98.07
57192;BME280;43052;52.588;13.396;2024-02-14T16:50:22;101250.13;;;9.78;98.29
57192;BME280;43052;52.588;13.396;2024-02-14T16:52:49;101261.47;;;9.80;98.26
57192;BME280;43052;52.588;13.396;2024-02-14T16:55:15;101262.31;;;9.79;98.49
57192;BME280;43052;52.588;13.396;2024-02-14T16:57:40;101258.81;;;9.77;98.47
57192;BME280;43052;52.588;13.396;2024-02-14T17:00:06;101266.69;;;9.83;98.46
57192;BME280;43052;52.588;13.396;2024-02-14T17:02:32;101258.00;;;9.84;98.38
57192;BME280;43052;52.588;13.396;2024-02-14T17:04:58;101260.63;;;9.85;98.50
57192;BME280;43052;52.588;13.396;2024-02-14T17:07:23;101251.03;;;9.80;98.51
57192;BME280;43052;52.588;13.396;2024-02-14T17:09:48;101249.28;;;9.77;98.64
57192;BME280;43052;52.588;13.396;2024-02-14T17:12:14;101261.50;;;9.86;98.75
57192;BME280;43052;52.588;13.396;2024-02-14T17:14:41;101258.03;;;9.87;98.68
57192;BME280;43052;52.588;13.396;2024-02-14T17:17:06;101263.25;;;9.88;98.80
57192;BME280;43052;52.588;13.396;2024-02-14T17:19:33;101256.28;;;9.86;98.48
57192;BME280;43052;52.588;13.396;2024-02-14T17:21:58;101257.13;;;9.85;98.71
57192;BME280;43052;52.588;13.396;2024-02-14T17:24:24;101253.66;;;9.84;98.60
57192;BME280;43052;52.588;13.396;2024-02-14T17:26:50;101259.75;;;9.85;98.69
57192;BME280;43052;52.588;13.396;2024-02-14T17:29:15;101264.13;;;9.91;98.90
57192;BME280;43052;52.588;13.396;2024-02-14T17:31:41;101251.03;;;9.84;98.92
57192;BME280;43052;52.588;13.396;2024-02-14T17:34:07;101267.63;;;9.93;98.87
57192;BME280;43052;52.588;13.396;2024-02-14T17:36:33;101265.88;;;9.93;98.86
57192;BME280;43052;52.588;13.396;2024-02-14T17:38:59;101267.59;;;9.90;98.40
57192;BME280;43052;52.588;13.396;2024-02-14T17:41:25;101268.47;;;9.87;98.64
57192;BME280;43052;52.588;13.396;2024-02-14T17:43:51;101270.19;;;9.83;98.71
57192;BME280;43052;52.588;13.396;2024-02-14T17:46:18;101262.31;;;9.80;98.62
57192;BME280;43052;52.588;13.396;2024-02-14T17:48:45;101269.31;;;9.81;98.78
57192;BME280;43052;52.588;13.396;2024-02-14T17:51:12;101268.44;;;9.82;98.50
57192;BME280;43052;52.588;13.396;2024-02-14T17:53:38;101288.50;;;9.90;98.76
57192;BME280;43052;52.588;13.396;2024-02-14T17:56:04;101280.66;;;9.86;98.46
57192;BME280;43052;52.588;13.396;2024-02-14T17:58:29;101285.91;;;9.90;98.26
57192;BME280;43052;52.588;13.396;2024-02-14T18:00:56;101283.28;;;9.90;98.18
57192;BME280;43052;52.588;13.396;2024-02-14T18:03:23;101289.41;;;9.92;98.47
57192;BME280;43052;52.588;13.396;2024-02-14T18:05:49;101295.50;;;9.97;98.26
57192;BME280;43052;52.588;13.396;2024-02-14T18:08:15;101290.28;;;9.95;98.36
57192;BME280;43052;52.588;13.396;2024-02-14T18:10:41;101292.94;;;9.98;98.24
57192;BME280;43052;52.588;13.396;2024-02-14T18:13:08;101278.09;;;9.91;98.09
57192;BME280;43052;52.588;13.396;2024-02-14T18:15:34;101286.78;;;9.93;98.38
57192;BME280;43052;52.588;13.396;2024-02-14T18:17:59;101278.06;;;9.94;98.42
57192;BME280;43052;52.588;13.396;2024-02-14T18:20:25;101274.59;;;9.95;98.38
57192;BME280;43052;52.588;13.396;2024-02-14T18:22:51;101281.63;;;9.99;98.21
57192;BME280;43052;52.588;13.396;2024-02-14T18:25:17;101282.44;;;9.95;98.28
57192;BME280;43052;52.588;13.396;2024-02-14T18:27:42;101275.50;;;9.96;98.32
57192;BME280;43052;52.588;13.396;2024-02-14T18:30:08;101266.75;;;9.92;98.18
57192;BME280;43052;52.588;13.396;2024-02-14T18:32:34;101278.09;;;9.93;98.52
57192;BME280;43052;52.588;13.396;2024-02-14T18:35:00;101277.19;;;9.92;98.45
57192;BME280;43052;52.588;13.396;2024-02-14T18:37:26;101281.59;;;9.96;98.39
57192;BME280;43052;52.588;13.396;2024-02-14T18:39:52;101268.50;;;9.92;98.31
57192;BME280;43052;52.588;13.396;2024-02-14T18:42:19;101281.59;;;10.01;98.16
57192;BME280;43052;52.588;13.396;2024-02-14T18:44:45;101271.13;;;9.96;98.02
57192;BME280;43052;52.588;13.396;2024-02-14T18:47:11;101271.13;;;9.98;98.03
57192;BME280;43052;52.588;13.396;2024-02-14T18:49:36;101272.88;;;9.97;98.18
57192;BME280;43052;52.588;13.396;2024-02-14T18:52:03;101276.38;;;9.99;98.16
57192;BME280;43052;52.588;13.396;2024-02-14T18:54:30;101277.25;;;10.00;98.07
57192;BME280;43052;52.588;13.396;2024-02-14T18:56:57;101275.53;;;10.00;97.83
57192;BME280;43052;52.588;13.396;2024-02-14T18:59:23;101276.38;;;9.99;97.69
57192;BME280;43052;52.588;13.396;2024-02-14T19:01:49;101272.03;;;9.98;97.96
57192;BME280;43052;52.588;13.396;2024-02-14T19:04:14;101274.63;;;10.01;97.68
57192;BME280;43052;52.588;13.396;2024-02-14T19:06:40;101275.53;;;10.00;97.66
57192;BME280;43052;52.588;13.396;2024-02-14T19:09:06;101276.38;;;10.01;97.46
57192;BME280;43052;52.588;13.396;2024-02-14T19:11:31;101282.47;;;10.00;97.64
57192;BME280;43052;52.588;13.396;2024-02-14T19:13:57;101285.06;;;10.01;97.42
57192;BME280;43052;52.588;13.396;2024-02-14T19:16:23;101285.97;;;10.00;97.45
57192;BME280;43052;52.588;13.396;2024-02-14T19:18:48;101286.84;;;10.01;97.63
57192;BME280;43052;52.588;13.396;2024-02-14T19:21:15;101288.59;;;10.00;97.27
57192;BME280;43052;52.588;13.396;2024-02-14T19:23:41;101293.84;;;10.07;97.27
57192;BME280;43052;52.588;13.396;2024-02-14T19:26:08;101283.34;;;9.99;97.13
57192;BME280;43052;52.588;13.396;2024-02-14T19:28:34;101293.81;;;10.03;97.11